Gillette Campbell County Airport
KGCC : rendu visible

Aérodrome :











RETROUVEZ-NOUS SUR...

 
LOGIN :

S'inscrire | Disclaimer

   EN    FR    IT 

 









Légende :    VFR   VFR Marginal   IFR   IFR Intensif   IFR Très Intensif
Visi : 
Plafond : 
>= 8 km
>= 3000ft
5 à 8 km
1000 à 3000 ft
1500m à 5 km
500 à 1000 ft
800 à 1500m
200 à 500 ft
< 800m
< 200 ft
Symboles :   Orages  Brouillard  Fortes neiges  Fortes précipitations  Vent > 20 kt







- Altitude de l'aérodrome : 4365 ft


KGCC - Gillette Campbell County

DERNIER METAR :
  • 201453Z AUTO 00000KT 10SM CLR 22/11 A3015 RMK AO2 SLP168 T02170111 53017

METARs EXPIRÉS :
  • 201353Z AUTO 00000KT 10SM CLR 19/09 A3012 RMK AO2 SLP151 T01940094
  • 201253Z AUTO 20003KT 10SM CLR 13/10 A3009 RMK AO2 SLP144 T01330100

TAF KGCC
Valide du 20 à 12h jusqu'au 21 à 12h UTC


201120Z 2012/2112 VRB05KT P6SM SCT150
FM201700 14018KT P6SM SCT100
Pas de NOTAMs connus pour ce terrain.



MET'MAP, la Météo Aéronautique d'un coup d'oeil ! - Copyright ORBIFLY Décembre 2007 - Disclaimer

ORBIFLY MET'MAP TEAM :

Programmation & Développement : Alexandra Zaïnal
Conception & Développement : Baudouin d'Aumeries
Co-Programmation & Développement : Marc-Olivier Méhu
Soutien technique & logistique : Manuel Goepfert

Contact : metmap@orbifly.com




SOURCES & CREDITS :

   NOAA       Earth
Advisory